sensor_id;sensor_type;location;lat;lon;timestamp;P1;durP1;ratioP1;P2;durP2;ratioP2
41546;SDS011;27271;45.412;10.852;2024-01-27T00:02:05;559.75;;;162.75;;
41546;SDS011;27271;45.412;10.852;2024-01-27T00:05:27;524.88;;;152.73;;
41546;SDS011;27271;45.412;10.852;2024-01-27T00:08:52;490.30;;;133.55;;
41546;SDS011;27271;45.412;10.852;2024-01-27T00:12:14;450.08;;;130.20;;
41546;SDS011;27271;45.412;10.852;2024-01-27T00:15:36;499.77;;;124.55;;
41546;SDS011;27271;45.412;10.852;2024-01-27T00:18:58;427.85;;;120.78;;
41546;SDS011;27271;45.412;10.852;2024-01-27T00:22:21;377.35;;;109.53;;
41546;SDS011;27271;45.412;10.852;2024-01-27T00:25:43;394.33;;;106.82;;
41546;SDS011;27271;45.412;10.852;2024-01-27T00:29:05;335.75;;;95.50;;
41546;SDS011;27271;45.412;10.852;2024-01-27T00:32:27;342.30;;;92.22;;
41546;SDS011;27271;45.412;10.852;2024-01-27T00:35:50;342.40;;;87.82;;
41546;SDS011;27271;45.412;10.852;2024-01-27T00:39:12;323.17;;;80.93;;
41546;SDS011;27271;45.412;10.852;2024-01-27T00:42:35;237.13;;;75.45;;
41546;SDS011;27271;45.412;10.852;2024-01-27T00:45:57;206.70;;;66.32;;
41546;SDS011;27271;45.412;10.852;2024-01-27T00:49:19;201.60;;;61.92;;
41546;SDS011;27271;45.412;10.852;2024-01-27T00:52:42;169.95;;;56.10;;
41546;SDS011;27271;45.412;10.852;2024-01-27T00:56:04;181.05;;;57.00;;
41546;SDS011;27271;45.412;10.852;2024-01-27T00:59:26;171.55;;;56.22;;
41546;SDS011;27271;45.412;10.852;2024-01-27T01:02:49;158.07;;;56.85;;
41546;SDS011;27271;45.412;10.852;2024-01-27T01:06:11;142.57;;;53.47;;
41546;SDS011;27271;45.412;10.852;2024-01-27T01:09:33;148.10;;;54.80;;
41546;SDS011;27271;45.412;10.852;2024-01-27T01:12:55;150.70;;;53.28;;
41546;SDS011;27271;45.412;10.852;2024-01-27T01:16:18;143.73;;;55.10;;
41546;SDS011;27271;45.412;10.852;2024-01-27T01:19:40;137.30;;;52.67;;
41546;SDS011;27271;45.412;10.852;2024-01-27T01:23:03;131.88;;;52.10;;
41546;SDS011;27271;45.412;10.852;2024-01-27T01:26:25;143.18;;;52.60;;
41546;SDS011;27271;45.412;10.852;2024-01-27T01:29:47;152.15;;;55.72;;
41546;SDS011;27271;45.412;10.852;2024-01-27T01:33:10;131.32;;;51.58;;
41546;SDS011;27271;45.412;10.852;2024-01-27T01:36:33;149.98;;;52.17;;
41546;SDS011;27271;45.412;10.852;2024-01-27T01:39:55;129.05;;;52.30;;
41546;SDS011;27271;45.412;10.852;2024-01-27T01:43:17;138.63;;;51.45;;
41546;SDS011;27271;45.412;10.852;2024-01-27T01:46:40;146.30;;;49.70;;
41546;SDS011;27271;45.412;10.852;2024-01-27T01:50:02;135.98;;;51.75;;
41546;SDS011;27271;45.412;10.852;2024-01-27T01:53:27;144.68;;;51.22;;
41546;SDS011;27271;45.412;10.852;2024-01-27T01:56:49;133.65;;;51.88;;
41546;SDS011;27271;45.412;10.852;2024-01-27T02:00:12;123.93;;;49.28;;
41546;SDS011;27271;45.412;10.852;2024-01-27T02:03:35;116.25;;;47.17;;
41546;SDS011;27271;45.412;10.852;2024-01-27T02:06:58;129.32;;;50.17;;
41546;SDS011;27271;45.412;10.852;2024-01-27T02:10:20;151.48;;;48.95;;
41546;SDS011;27271;45.412;10.852;2024-01-27T02:13:42;182.13;;;51.00;;
41546;SDS011;27271;45.412;10.852;2024-01-27T02:17:04;177.80;;;51.20;;
41546;SDS011;27271;45.412;10.852;2024-01-27T02:20:27;168.27;;;49.00;;
41546;SDS011;27271;45.412;10.852;2024-01-27T02:23:49;227.73;;;50.20;;
41546;SDS011;27271;45.412;10.852;2024-01-27T02:27:11;146.00;;;48.40;;
41546;SDS011;27271;45.412;10.852;2024-01-27T02:30:34;146.40;;;48.45;;
41546;SDS011;27271;45.412;10.852;2024-01-27T02:33:56;161.40;;;47.25;;
41546;SDS011;27271;45.412;10.852;2024-01-27T02:37:18;139.68;;;49.50;;
41546;SDS011;27271;45.412;10.852;2024-01-27T02:40:41;121.80;;;48.63;;
41546;SDS011;27271;45.412;10.852;2024-01-27T02:44:03;143.10;;;45.65;;
41546;SDS011;27271;45.412;10.852;2024-01-27T02:47:26;114.45;;;45.92;;
41546;SDS011;27271;45.412;10.852;2024-01-27T02:50:48;136.52;;;46.90;;
41546;SDS011;27271;45.412;10.852;2024-01-27T02:54:10;152.57;;;45.20;;
41546;SDS011;27271;45.412;10.852;2024-01-27T02:57:33;123.28;;;46.70;;
41546;SDS011;27271;45.412;10.852;2024-01-27T03:00:55;137.50;;;46.75;;
41546;SDS011;27271;45.412;10.852;2024-01-27T03:04:17;108.85;;;43.08;;
41546;SDS011;27271;45.412;10.852;2024-01-27T03:07:39;134.63;;;45.15;;
41546;SDS011;27271;45.412;10.852;2024-01-27T03:11:02;126.88;;;48.35;;
41546;SDS011;27271;45.412;10.852;2024-01-27T03:14:25;108.78;;;43.50;;
41546;SDS011;27271;45.412;10.852;2024-01-27T03:17:48;122.70;;;46.42;;
41546;SDS011;27271;45.412;10.852;2024-01-27T03:21:10;114.20;;;43.65;;
41546;SDS011;27271;45.412;10.852;2024-01-27T03:24:32;110.68;;;44.80;;
41546;SDS011;27271;45.412;10.852;2024-01-27T03:27:55;114.57;;;44.97;;
41546;SDS011;27271;45.412;10.852;2024-01-27T03:31:17;111.25;;;44.65;;
41546;SDS011;27271;45.412;10.852;2024-01-27T03:34:43;164.35;;;50.10;;
41546;SDS011;27271;45.412;10.852;2024-01-27T03:38:07;99.60;;;43.58;;
41546;SDS011;27271;45.412;10.852;2024-01-27T03:41:29;149.43;;;45.28;;
41546;SDS011;27271;45.412;10.852;2024-01-27T03:44:51;108.75;;;44.05;;
41546;SDS011;27271;45.412;10.852;2024-01-27T03:48:14;105.07;;;41.70;;
41546;SDS011;27271;45.412;10.852;2024-01-27T03:51:36;99.93;;;41.60;;
41546;SDS011;27271;45.412;10.852;2024-01-27T03:54:59;105.88;;;40.45;;
41546;SDS011;27271;45.412;10.852;2024-01-27T03:58:21;101.85;;;41.42;;
41546;SDS011;27271;45.412;10.852;2024-01-27T04:01:43;127.50;;;45.95;;
41546;SDS011;27271;45.412;10.852;2024-01-27T04:05:05;139.77;;;43.13;;
41546;SDS011;27271;45.412;10.852;2024-01-27T04:08:30;137.32;;;46.78;;
41546;SDS011;27271;45.412;10.852;2024-01-27T04:11:53;98.57;;;42.30;;
41546;SDS011;27271;45.412;10.852;2024-01-27T04:15:15;119.63;;;42.85;;
41546;SDS011;27271;45.412;10.852;2024-01-27T04:18:38;143.13;;;45.67;;
41546;SDS011;27271;45.412;10.852;2024-01-27T04:22:01;119.43;;;44.22;;
41546;SDS011;27271;45.412;10.852;2024-01-27T04:25:24;142.38;;;42.95;;
41546;SDS011;27271;45.412;10.852;2024-01-27T04:28:46;103.15;;;40.13;;
41546;SDS011;27271;45.412;10.852;2024-01-27T04:32:08;95.57;;;40.38;;
41546;SDS011;27271;45.412;10.852;2024-01-27T04:35:30;103.32;;;41.20;;
41546;SDS011;27271;45.412;10.852;2024-01-27T04:38:52;101.40;;;38.47;;
41546;SDS011;27271;45.412;10.852;2024-01-27T04:42:15;132.25;;;44.70;;
41546;SDS011;27271;45.412;10.852;2024-01-27T04:45:38;154.82;;;41.45;;
41546;SDS011;27271;45.412;10.852;2024-01-27T04:49:00;94.30;;;40.10;;
41546;SDS011;27271;45.412;10.852;2024-01-27T04:52:23;85.57;;;39.03;;
41546;SDS011;27271;45.412;10.852;2024-01-27T04:55:45;87.80;;;36.45;;
41546;SDS011;27271;45.412;10.852;2024-01-27T04:59:07;85.03;;;35.88;;
41546;SDS011;27271;45.412;10.852;2024-01-27T05:02:30;88.80;;;33.35;;
41546;SDS011;27271;45.412;10.852;2024-01-27T05:05:52;95.03;;;30.67;;
41546;SDS011;27271;45.412;10.852;2024-01-27T05:09:14;105.30;;;36.00;;
41546;SDS011;27271;45.412;10.852;2024-01-27T05:12:38;104.03;;;35.58;;
41546;SDS011;27271;45.412;10.852;2024-01-27T05:16:01;120.70;;;34.55;;
41546;SDS011;27271;45.412;10.852;2024-01-27T05:19:23;88.53;;;32.38;;
41546;SDS011;27271;45.412;10.852;2024-01-27T05:22:46;129.75;;;34.63;;
41546;SDS011;27271;45.412;10.852;2024-01-27T05:26:08;99.15;;;34.80;;
41546;SDS011;27271;45.412;10.852;2024-01-27T05:29:32;143.93;;;35.08;;
41546;SDS011;27271;45.412;10.852;2024-01-27T05:32:54;148.40;;;37.00;;
41546;SDS011;27271;45.412;10.852;2024-01-27T05:36:17;118.93;;;39.10;;
41546;SDS011;27271;45.412;10.852;2024-01-27T05:39:39;211.82;;;37.90;;
41546;SDS011;27271;45.412;10.852;2024-01-27T05:43:02;102.30;;;34.45;;
41546;SDS011;27271;45.412;10.852;2024-01-27T05:46:24;145.07;;;35.30;;
41546;SDS011;27271;45.412;10.852;2024-01-27T05:49:47;129.20;;;36.22;;
41546;SDS011;27271;45.412;10.852;2024-01-27T05:53:10;164.35;;;38.08;;
41546;SDS011;27271;45.412;10.852;2024-01-27T05:56:32;109.65;;;34.88;;
41546;SDS011;27271;45.412;10.852;2024-01-27T05:59:55;106.78;;;35.22;;
41546;SDS011;27271;45.412;10.852;2024-01-27T06:03:17;113.30;;;35.78;;
41546;SDS011;27271;45.412;10.852;2024-01-27T06:06:40;120.53;;;38.60;;
41546;SDS011;27271;45.412;10.852;2024-01-27T06:10:02;121.30;;;37.50;;
41546;SDS011;27271;45.412;10.852;2024-01-27T06:13:25;109.07;;;38.97;;
41546;SDS011;27271;45.412;10.852;2024-01-27T06:16:47;152.15;;;38.05;;
41546;SDS011;27271;45.412;10.852;2024-01-27T06:20:10;109.28;;;36.55;;
41546;SDS011;27271;45.412;10.852;2024-01-27T06:23:33;124.03;;;38.20;;
41546;SDS011;27271;45.412;10.852;2024-01-27T06:26:55;124.32;;;36.88;;
41546;SDS011;27271;45.412;10.852;2024-01-27T06:30:17;112.78;;;38.53;;
41546;SDS011;27271;45.412;10.852;2024-01-27T06:33:40;141.13;;;34.17;;
41546;SDS011;27271;45.412;10.852;2024-01-27T06:37:02;115.82;;;37.33;;
41546;SDS011;27271;45.412;10.852;2024-01-27T06:40:25;141.68;;;37.67;;
41546;SDS011;27271;45.412;10.852;2024-01-27T06:43:47;140.43;;;35.20;;
41546;SDS011;27271;45.412;10.852;2024-01-27T06:47:09;153.75;;;35.95;;
41546;SDS011;27271;45.412;10.852;2024-01-27T06:50:32;165.18;;;37.45;;
41546;SDS011;27271;45.412;10.852;2024-01-27T06:53:54;121.63;;;36.70;;
41546;SDS011;27271;45.412;10.852;2024-01-27T06:57:23;144.77;;;36.05;;
41546;SDS011;27271;45.412;10.852;2024-01-27T07:00:46;202.73;;;37.83;;
41546;SDS011;27271;45.412;10.852;2024-01-27T07:04:08;110.85;;;33.35;;
41546;SDS011;27271;45.412;10.852;2024-01-27T07:07:31;110.57;;;34.03;;
41546;SDS011;27271;45.412;10.852;2024-01-27T07:10:53;167.20;;;35.92;;
41546;SDS011;27271;45.412;10.852;2024-01-27T07:14:15;162.15;;;33.03;;
41546;SDS011;27271;45.412;10.852;2024-01-27T07:17:37;168.20;;;38.95;;
41546;SDS011;27271;45.412;10.852;2024-01-27T07:20:59;144.07;;;35.50;;
41546;SDS011;27271;45.412;10.852;2024-01-27T07:24:22;164.00;;;33.88;;
41546;SDS011;27271;45.412;10.852;2024-01-27T07:27:45;135.82;;;30.13;;
41546;SDS011;27271;45.412;10.852;2024-01-27T07:31:08;84.22;;;30.90;;
41546;SDS011;27271;45.412;10.852;2024-01-27T07:34:30;126.50;;;31.02;;
41546;SDS011;27271;45.412;10.852;2024-01-27T07:37:52;146.65;;;30.02;;
41546;SDS011;27271;45.412;10.852;2024-01-27T07:41:15;124.55;;;30.55;;
41546;SDS011;27271;45.412;10.852;2024-01-27T07:44:37;87.22;;;29.20;;
41546;SDS011;27271;45.412;10.852;2024-01-27T07:48:00;102.18;;;28.95;;
41546;SDS011;27271;45.412;10.852;2024-01-27T07:51:23;155.90;;;50.47;;
41546;SDS011;27271;45.412;10.852;2024-01-27T07:54:45;170.55;;;51.78;;
41546;SDS011;27271;45.412;10.852;2024-01-27T07:58:07;100.78;;;33.45;;
41546;SDS011;27271;45.412;10.852;2024-01-27T08:01:29;102.15;;;28.30;;
41546;SDS011;27271;45.412;10.852;2024-01-27T08:04:52;100.93;;;38.03;;
41546;SDS011;27271;45.412;10.852;2024-01-27T08:08:14;132.02;;;36.60;;
41546;SDS011;27271;45.412;10.852;2024-01-27T08:11:36;103.32;;;37.35;;
41546;SDS011;27271;45.412;10.852;2024-01-27T08:14:59;206.27;;;45.15;;
41546;SDS011;27271;45.412;10.852;2024-01-27T08:18:21;137.02;;;43.17;;
41546;SDS011;27271;45.412;10.852;2024-01-27T08:21:43;137.98;;;42.88;;
41546;SDS011;27271;45.412;10.852;2024-01-27T08:25:06;116.20;;;44.63;;
41546;SDS011;27271;45.412;10.852;2024-01-27T08:28:28;156.10;;;47.05;;
41546;SDS011;27271;45.412;10.852;2024-01-27T08:31:50;150.32;;;45.97;;
41546;SDS011;27271;45.412;10.852;2024-01-27T08:35:13;191.18;;;53.10;;
41546;SDS011;27271;45.412;10.852;2024-01-27T08:38:36;165.32;;;49.58;;
41546;SDS011;27271;45.412;10.852;2024-01-27T08:41:59;263.33;;;57.90;;
41546;SDS011;27271;45.412;10.852;2024-01-27T08:45:21;178.30;;;61.03;;
41546;SDS011;27271;45.412;10.852;2024-01-27T08:48:43;323.40;;;92.40;;
41546;SDS011;27271;45.412;10.852;2024-01-27T08:52:06;314.58;;;89.20;;
41546;SDS011;27271;45.412;10.852;2024-01-27T08:55:28;326.38;;;88.50;;
41546;SDS011;27271;45.412;10.852;2024-01-27T08:58:50;273.10;;;81.30;;
41546;SDS011;27271;45.412;10.852;2024-01-27T09:02:14;390.45;;;99.35;;
41546;SDS011;27271;45.412;10.852;2024-01-27T09:05:36;332.05;;;84.25;;
41546;SDS011;27271;45.412;10.852;2024-01-27T09:08:58;315.65;;;97.60;;
41546;SDS011;27271;45.412;10.852;2024-01-27T09:12:21;399.80;;;111.63;;
41546;SDS011;27271;45.412;10.852;2024-01-27T09:15:43;337.63;;;109.03;;
41546;SDS011;27271;45.412;10.852;2024-01-27T09:19:05;340.10;;;96.28;;
41546;SDS011;27271;45.412;10.852;2024-01-27T09:22:28;372.77;;;109.90;;
41546;SDS011;27271;45.412;10.852;2024-01-27T09:25:50;359.77;;;105.45;;
41546;SDS011;27271;45.412;10.852;2024-01-27T09:29:12;337.90;;;85.88;;
41546;SDS011;27271;45.412;10.852;2024-01-27T09:32:34;305.95;;;82.72;;
41546;SDS011;27271;45.412;10.852;2024-01-27T09:35:56;255.40;;;67.70;;
41546;SDS011;27271;45.412;10.852;2024-01-27T09:39:19;296.80;;;71.40;;
41546;SDS011;27271;45.412;10.852;2024-01-27T09:42:42;288.02;;;68.18;;
41546;SDS011;27271;45.412;10.852;2024-01-27T09:46:16;212.45;;;61.22;;
41546;SDS011;27271;45.412;10.852;2024-01-27T09:49:39;190.18;;;57.72;;
41546;SDS011;27271;45.412;10.852;2024-01-27T09:53:04;322.80;;;69.15;;
41546;SDS011;27271;45.412;10.852;2024-01-27T09:56:29;295.35;;;68.53;;
41546;SDS011;27271;45.412;10.852;2024-01-27T09:59:53;217.43;;;60.00;;
41546;SDS011;27271;45.412;10.852;2024-01-27T10:03:16;269.17;;;67.65;;
41546;SDS011;27271;45.412;10.852;2024-01-27T10:06:42;188.00;;;55.45;;
41546;SDS011;27271;45.412;10.852;2024-01-27T10:10:04;276.23;;;66.80;;
41546;SDS011;27271;45.412;10.852;2024-01-27T10:13:27;203.93;;;63.58;;
41546;SDS011;27271;45.412;10.852;2024-01-27T10:16:49;204.15;;;67.85;;
41546;SDS011;27271;45.412;10.852;2024-01-27T10:20:11;194.93;;;57.67;;
41546;SDS011;27271;45.412;10.852;2024-01-27T10:23:41;191.20;;;56.78;;
41546;SDS011;27271;45.412;10.852;2024-01-27T10:27:04;186.68;;;58.90;;
41546;SDS011;27271;45.412;10.852;2024-01-27T10:30:27;206.27;;;64.97;;
41546;SDS011;27271;45.412;10.852;2024-01-27T10:33:54;199.50;;;64.55;;
41546;SDS011;27271;45.412;10.852;2024-01-27T10:37:23;225.07;;;62.42;;
41546;SDS011;27271;45.412;10.852;2024-01-27T10:40:46;189.93;;;54.63;;
41546;SDS011;27271;45.412;10.852;2024-01-27T10:44:09;198.43;;;61.22;;
41546;SDS011;27271;45.412;10.852;2024-01-27T10:47:35;230.75;;;65.43;;
41546;SDS011;27271;45.412;10.852;2024-01-27T10:50:58;219.60;;;67.72;;
41546;SDS011;27271;45.412;10.852;2024-01-27T10:54:26;237.80;;;64.55;;
41546;SDS011;27271;45.412;10.852;2024-01-27T10:57:50;172.13;;;56.85;;
41546;SDS011;27271;45.412;10.852;2024-01-27T11:01:15;201.93;;;61.85;;
41546;SDS011;27271;45.412;10.852;2024-01-27T11:04:42;208.45;;;64.78;;
41546;SDS011;27271;45.412;10.852;2024-01-27T11:08:05;172.35;;;60.53;;
41546;SDS011;27271;45.412;10.852;2024-01-27T11:11:30;177.18;;;61.47;;
41546;SDS011;27271;45.412;10.852;2024-01-27T11:14:53;169.77;;;58.85;;
41546;SDS011;27271;45.412;10.852;2024-01-27T11:18:15;205.65;;;62.97;;
41546;SDS011;27271;45.412;10.852;2024-01-27T11:21:38;178.60;;;67.18;;
41546;SDS011;27271;45.412;10.852;2024-01-27T11:28:38;221.80;;;73.72;;
41546;SDS011;27271;45.412;10.852;2024-01-27T11:32:02;173.02;;;67.05;;
41546;SDS011;27271;45.412;10.852;2024-01-27T11:35:25;183.73;;;68.13;;
41546;SDS011;27271;45.412;10.852;2024-01-27T11:38:47;229.07;;;83.13;;
41546;SDS011;27271;45.412;10.852;2024-01-27T11:42:10;218.43;;;72.35;;
41546;SDS011;27271;45.412;10.852;2024-01-27T11:45:37;229.65;;;80.63;;
41546;SDS011;27271;45.412;10.852;2024-01-27T11:48:59;237.25;;;84.63;;
41546;SDS011;27271;45.412;10.852;2024-01-27T11:52:22;244.40;;;87.10;;
41546;SDS011;27271;45.412;10.852;2024-01-27T11:55:53;251.63;;;81.68;;
41546;SDS011;27271;45.412;10.852;2024-01-27T11:59:17;222.32;;;79.18;;
41546;SDS011;27271;45.412;10.852;2024-01-27T12:02:39;223.30;;;78.90;;
41546;SDS011;27271;45.412;10.852;2024-01-27T12:06:02;207.95;;;77.80;;
41546;SDS011;27271;45.412;10.852;2024-01-27T12:09:25;216.82;;;81.18;;
41546;SDS011;27271;45.412;10.852;2024-01-27T12:12:47;214.18;;;76.07;;
41546;SDS011;27271;45.412;10.852;2024-01-27T12:16:10;203.35;;;74.70;;
41546;SDS011;27271;45.412;10.852;2024-01-27T12:19:32;207.88;;;77.15;;
41546;SDS011;27271;45.412;10.852;2024-01-27T12:23:04;212.13;;;78.65;;
41546;SDS011;27271;45.412;10.852;2024-01-27T12:26:28;197.98;;;72.30;;
41546;SDS011;27271;45.412;10.852;2024-01-27T12:29:51;191.65;;;75.10;;
41546;SDS011;27271;45.412;10.852;2024-01-27T12:33:13;211.38;;;76.05;;
41546;SDS011;27271;45.412;10.852;2024-01-27T12:36:40;205.52;;;76.93;;
41546;SDS011;27271;45.412;10.852;2024-01-27T12:43:46;192.63;;;75.18;;
41546;SDS011;27271;45.412;10.852;2024-01-27T12:47:09;204.43;;;78.38;;
41546;SDS011;27271;45.412;10.852;2024-01-27T12:50:31;200.60;;;75.85;;
41546;SDS011;27271;45.412;10.852;2024-01-27T12:53:55;197.52;;;73.70;;
41546;SDS011;27271;45.412;10.852;2024-01-27T12:57:17;189.45;;;70.38;;
41546;SDS011;27271;45.412;10.852;2024-01-27T13:00:39;202.65;;;75.40;;
41546;SDS011;27271;45.412;10.852;2024-01-27T13:04:02;198.05;;;71.97;;
41546;SDS011;27271;45.412;10.852;2024-01-27T13:07:24;186.10;;;71.68;;
41546;SDS011;27271;45.412;10.852;2024-01-27T13:10:47;195.20;;;74.80;;
41546;SDS011;27271;45.412;10.852;2024-01-27T13:14:10;225.05;;;84.70;;
41546;SDS011;27271;45.412;10.852;2024-01-27T13:17:35;206.82;;;74.13;;
41546;SDS011;27271;45.412;10.852;2024-01-27T13:20:57;218.93;;;78.60;;
41546;SDS011;27271;45.412;10.852;2024-01-27T13:24:20;213.02;;;80.55;;
41546;SDS011;27271;45.412;10.852;2024-01-27T13:27:42;232.90;;;83.05;;
41546;SDS011;27271;45.412;10.852;2024-01-27T13:31:09;228.65;;;77.97;;
41546;SDS011;27271;45.412;10.852;2024-01-27T13:34:32;221.65;;;81.53;;
41546;SDS011;27271;45.412;10.852;2024-01-27T13:37:55;213.80;;;81.50;;
41546;SDS011;27271;45.412;10.852;2024-01-27T13:41:19;220.95;;;80.15;;
41546;SDS011;27271;45.412;10.852;2024-01-27T13:44:41;233.77;;;84.47;;
41546;SDS011;27271;45.412;10.852;2024-01-27T13:48:04;217.07;;;80.65;;
41546;SDS011;27271;45.412;10.852;2024-01-27T13:51:27;226.73;;;78.72;;
41546;SDS011;27271;45.412;10.852;2024-01-27T13:54:49;226.77;;;82.88;;
41546;SDS011;27271;45.412;10.852;2024-01-27T13:58:11;235.65;;;85.05;;
41546;SDS011;27271;45.412;10.852;2024-01-27T14:01:33;246.15;;;85.03;;
41546;SDS011;27271;45.412;10.852;2024-01-27T14:04:56;239.30;;;87.03;;
41546;SDS011;27271;45.412;10.852;2024-01-27T14:08:18;234.90;;;84.47;;
41546;SDS011;27271;45.412;10.852;2024-01-27T14:11:41;232.88;;;85.72;;
41546;SDS011;27271;45.412;10.852;2024-01-27T14:15:04;233.85;;;84.55;;
41546;SDS011;27271;45.412;10.852;2024-01-27T14:18:31;237.18;;;88.50;;
41546;SDS011;27271;45.412;10.852;2024-01-27T14:21:53;232.20;;;84.80;;
41546;SDS011;27271;45.412;10.852;2024-01-27T14:25:15;231.25;;;86.55;;
41546;SDS011;27271;45.412;10.852;2024-01-27T14:28:37;250.98;;;90.63;;
41546;SDS011;27271;45.412;10.852;2024-01-27T14:32:00;221.55;;;80.28;;
41546;SDS011;27271;45.412;10.852;2024-01-27T14:35:22;241.52;;;86.28;;
41546;SDS011;27271;45.412;10.852;2024-01-27T14:38:44;232.57;;;85.95;;
41546;SDS011;27271;45.412;10.852;2024-01-27T14:42:07;234.00;;;83.80;;
41546;SDS011;27271;45.412;10.852;2024-01-27T14:45:30;247.45;;;87.22;;
41546;SDS011;27271;45.412;10.852;2024-01-27T14:48:52;227.85;;;85.15;;
41546;SDS011;27271;45.412;10.852;2024-01-27T14:52:15;243.15;;;84.85;;
41546;SDS011;27271;45.412;10.852;2024-01-27T14:55:38;233.90;;;83.97;;
41546;SDS011;27271;45.412;10.852;2024-01-27T14:59:00;223.65;;;82.95;;
41546;SDS011;27271;45.412;10.852;2024-01-27T15:02:22;244.65;;;85.05;;
41546;SDS011;27271;45.412;10.852;2024-01-27T15:05:49;217.82;;;83.28;;
41546;SDS011;27271;45.412;10.852;2024-01-27T15:09:12;212.55;;;83.50;;
41546;SDS011;27271;45.412;10.852;2024-01-27T15:12:37;230.57;;;83.95;;
41546;SDS011;27271;45.412;10.852;2024-01-27T15:16:01;215.20;;;78.45;;
41546;SDS011;27271;45.412;10.852;2024-01-27T15:19:23;229.10;;;82.75;;
41546;SDS011;27271;45.412;10.852;2024-01-27T15:22:46;218.90;;;82.13;;
41546;SDS011;27271;45.412;10.852;2024-01-27T15:26:08;207.15;;;76.35;;
41546;SDS011;27271;45.412;10.852;2024-01-27T15:29:32;206.10;;;78.75;;
41546;SDS011;27271;45.412;10.852;2024-01-27T15:32:54;201.35;;;76.55;;
41546;SDS011;27271;45.412;10.852;2024-01-27T15:36:16;199.57;;;78.40;;
41546;SDS011;27271;45.412;10.852;2024-01-27T15:39:39;209.77;;;76.72;;
41546;SDS011;27271;45.412;10.852;2024-01-27T15:43:01;207.55;;;76.20;;
41546;SDS011;27271;45.412;10.852;2024-01-27T15:46:23;202.23;;;76.60;;
41546;SDS011;27271;45.412;10.852;2024-01-27T15:49:45;205.65;;;75.68;;
41546;SDS011;27271;45.412;10.852;2024-01-27T15:53:14;200.32;;;77.15;;
41546;SDS011;27271;45.412;10.852;2024-01-27T15:56:37;209.30;;;74.20;;
41546;SDS011;27271;45.412;10.852;2024-01-27T15:59:59;216.63;;;75.85;;
41546;SDS011;27271;45.412;10.852;2024-01-27T16:03:24;222.75;;;77.95;;
41546;SDS011;27271;45.412;10.852;2024-01-27T16:06:47;201.20;;;75.03;;
41546;SDS011;27271;45.412;10.852;2024-01-27T16:10:10;203.82;;;74.68;;
41546;SDS011;27271;45.412;10.852;2024-01-27T16:13:32;211.85;;;77.00;;
41546;SDS011;27271;45.412;10.852;2024-01-27T16:16:57;218.05;;;75.43;;
41546;SDS011;27271;45.412;10.852;2024-01-27T16:20:19;211.30;;;76.25;;
41546;SDS011;27271;45.412;10.852;2024-01-27T16:23:41;226.65;;;78.80;;
41546;SDS011;27271;45.412;10.852;2024-01-27T16:27:04;239.75;;;77.88;;
41546;SDS011;27271;45.412;10.852;2024-01-27T16:30:26;218.38;;;75.50;;
41546;SDS011;27271;45.412;10.852;2024-01-27T16:33:48;211.73;;;74.72;;
41546;SDS011;27271;45.412;10.852;2024-01-27T16:37:11;228.93;;;75.80;;
41546;SDS011;27271;45.412;10.852;2024-01-27T16:40:33;230.60;;;77.78;;
41546;SDS011;27271;45.412;10.852;2024-01-27T16:43:55;214.13;;;75.10;;
41546;SDS011;27271;45.412;10.852;2024-01-27T16:47:18;246.85;;;75.90;;
41546;SDS011;27271;45.412;10.852;2024-01-27T16:50:40;252.38;;;80.43;;
41546;SDS011;27271;45.412;10.852;2024-01-27T16:54:05;282.70;;;83.57;;
41546;SDS011;27271;45.412;10.852;2024-01-27T16:57:27;281.45;;;79.70;;
41546;SDS011;27271;45.412;10.852;2024-01-27T17:00:53;239.07;;;74.53;;
41546;SDS011;27271;45.412;10.852;2024-01-27T17:04:15;234.77;;;70.28;;
41546;SDS011;27271;45.412;10.852;2024-01-27T17:07:37;248.55;;;74.95;;
41546;SDS011;27271;45.412;10.852;2024-01-27T17:11:00;228.70;;;74.10;;
41546;SDS011;27271;45.412;10.852;2024-01-27T17:14:22;252.30;;;74.90;;
41546;SDS011;27271;45.412;10.852;2024-01-27T17:17:45;240.52;;;71.20;;
41546;SDS011;27271;45.412;10.852;2024-01-27T17:21:07;238.52;;;73.70;;
41546;SDS011;27271;45.412;10.852;2024-01-27T17:24:29;234.52;;;68.93;;
41546;SDS011;27271;45.412;10.852;2024-01-27T17:27:51;223.18;;;68.60;;
41546;SDS011;27271;45.412;10.852;2024-01-27T17:31:14;244.18;;;67.55;;
41546;SDS011;27271;45.412;10.852;2024-01-27T17:34:36;246.98;;;69.25;;
41546;SDS011;27271;45.412;10.852;2024-01-27T17:37:58;205.43;;;65.10;;
41546;SDS011;27271;45.412;10.852;2024-01-27T17:41:20;272.95;;;63.53;;
41546;SDS011;27271;45.412;10.852;2024-01-27T17:44:43;293.73;;;66.20;;
41546;SDS011;27271;45.412;10.852;2024-01-27T17:48:05;259.08;;;65.35;;
41546;SDS011;27271;45.412;10.852;2024-01-27T17:51:28;292.88;;;60.70;;
41546;SDS011;27271;45.412;10.852;2024-01-27T17:54:51;284.67;;;61.58;;
41546;SDS011;27271;45.412;10.852;2024-01-27T17:58:13;264.10;;;59.30;;
41546;SDS011;27271;45.412;10.852;2024-01-27T18:01:37;283.38;;;60.85;;
41546;SDS011;27271;45.412;10.852;2024-01-27T18:04:59;322.13;;;63.22;;
41546;SDS011;27271;45.412;10.852;2024-01-27T18:08:21;336.40;;;64.95;;
41546;SDS011;27271;45.412;10.852;2024-01-27T18:11:43;388.50;;;63.35;;
41546;SDS011;27271;45.412;10.852;2024-01-27T18:15:06;233.10;;;60.55;;
41546;SDS011;27271;45.412;10.852;2024-01-27T18:18:28;370.08;;;63.38;;
41546;SDS011;27271;45.412;10.852;2024-01-27T18:21:50;356.92;;;67.22;;
41546;SDS011;27271;45.412;10.852;2024-01-27T18:25:13;295.27;;;60.35;;
41546;SDS011;27271;45.412;10.852;2024-01-27T18:28:35;268.70;;;62.80;;
41546;SDS011;27271;45.412;10.852;2024-01-27T18:31:57;336.60;;;66.30;;
41546;SDS011;27271;45.412;10.852;2024-01-27T18:35:20;272.75;;;64.60;;
41546;SDS011;27271;45.412;10.852;2024-01-27T18:38:43;332.77;;;59.80;;
41546;SDS011;27271;45.412;10.852;2024-01-27T18:42:08;244.10;;;56.42;;
41546;SDS011;27271;45.412;10.852;2024-01-27T18:45:31;209.90;;;59.38;;
41546;SDS011;27271;45.412;10.852;2024-01-27T18:48:53;217.68;;;56.30;;
41546;SDS011;27271;45.412;10.852;2024-01-27T18:52:16;245.07;;;58.92;;
41546;SDS011;27271;45.412;10.852;2024-01-27T18:55:38;206.82;;;57.47;;
41546;SDS011;27271;45.412;10.852;2024-01-27T18:59:01;192.48;;;58.00;;
41546;SDS011;27271;45.412;10.852;2024-01-27T19:02:23;231.45;;;57.85;;
41546;SDS011;27271;45.412;10.852;2024-01-27T19:05:45;194.10;;;55.20;;
41546;SDS011;27271;45.412;10.852;2024-01-27T19:09:08;193.48;;;56.88;;
41546;SDS011;27271;45.412;10.852;2024-01-27T19:12:30;189.77;;;53.95;;
41546;SDS011;27271;45.412;10.852;2024-01-27T19:15:52;156.40;;;52.83;;
41546;SDS011;27271;45.412;10.852;2024-01-27T19:19:16;214.43;;;62.42;;